Buoy 46762

sailwx.info

Track history (hours):
 
Tides and Currents Weather Stations Pressure Air Temp Water Temp Dewpoint Dewpoint Depression Visibility Wind Speed Wind Dir Waves Ship Positions

Drifting buoy 46762

Last reported at 2014-Oct-23 00:00 UTC. Time now 2014-Oct-23 01:39 UTC.
Position N 53°34' W 143°26'.

Barometer 987.3 mb
Water temperature 11.1 ° C

Date/timePositionNaut miles runAvg speedWind from/ knotsBaromVisibWave heightAir tempDewpointWater temp
2014-Oct-23 00:00N 53°34' W 143°26'0 0.4 987.3 11.1
2014-Oct-22 23:00N 53°34' W 143°26'0 0.0 987.1 11.1
2014-Oct-22 22:00N 53°34' W 143°26'2 0.9 987.1 11.1
2014-Oct-22 20:00N 53°36' W 143°27'0 0.0 986.7 11.1
2014-Oct-22 19:00N 53°36' W 143°27'0 0.0 986.4 11.1
2014-Oct-22 17:00N 53°36' W 143°27'0 0.0 985.2 11.1
2014-Oct-22 16:00N 53°36' W 143°27'1 1.3 984.7 11.2
2014-Oct-22 15:00N 53°37' W 143°29'1 1.5 984.2 11.2
2014-Oct-22 14:00N 53°36' W 143°27'0 0.4 983.8 11.2
2014-Oct-22 13:00N 53°35' W 143°27'0 0.0 983.6 11.2
2014-Oct-22 11:00N 53°35' W 143°27'0 0.0 982.7 11.2
2014-Oct-22 10:00N 53°35' W 143°27'0 0.0 982.2 11.2
2014-Oct-22 07:00N 53°35' W 143°27'3 3.0 980.7 11.2
2014-Oct-22 06:00N 53°38' W 143°25'0 0.0 980.1 11.2
2014-Oct-22 04:00N 53°38' W 143°25'3 2.6 979.8 11.3
2014-Oct-22 03:00N 53°41' W 143°27'0 0.0 979.4 11.3
2014-Oct-22 02:00N 53°41' W 143°27'2 1.9 978.6 11.3
2014-Oct-22 01:00N 53°43' W 143°27'0 0.0 977.5 11.4
2014-Oct-22 00:00N 53°43' W 143°27'1 0.7 977.6 11.4
2014-Oct-21 22:00N 53°41' W 143°29'0 0.0 975.4 11.5
2014-Oct-21 21:00N 53°41' W 143°29'0 0.0 975.0 11.5
2014-Oct-21 20:00N 53°41' W 143°29'3 3.1 974.9 11.5
2014-Oct-21 19:00N 53°41' W 143°23'0 0.0 974.5 11.5
2014-Oct-21 18:00N 53°41' W 143°23'0 0.0 974.6 11.5
2014-Oct-21 17:00N 53°41' W 143°23'2 0.8 974.4 11.5
2014-Oct-21 15:00N 53°43' W 143°24'2 2.5 975.1 11.5
2014-Oct-21 14:00N 53°43' W 143°28'0 0.0 976.0 11.5
2014-Oct-21 13:00N 53°43' W 143°28'0 0.0 976.4 11.5
2014-Oct-21 12:00N 53°43' W 143°28'0 0.0 976.4 11.5
2014-Oct-21 10:00N 53°43' W 143°28'0 0.0 976.8 11.6
2014-Oct-21 08:00N 53°43' W 143°28'0 0.0 978.1 11.6
2014-Oct-21 07:00N 53°43' W 143°28'2 1.8 978.7 11.6
2014-Oct-21 06:00N 53°42' W 143°25'1 0.8 979.2 11.6
2014-Oct-21 05:00N 53°41' W 143°25'3 3.2 979.7 11.6
2014-Oct-21 04:00N 53°41' W 143°20'0 0.0 980.5 11.6
2014-Oct-21 03:00N 53°41' W 143°20'0 0.1 981.4 11.6
2014-Oct-21 02:00N 53°41' W 143°20'1 0.4 982.2 11.5
2014-Oct-21 00:00N 53°41' W 143°18'2 2.3 984.3 11.6
2014-Oct-20 23:00N 53°43' W 143°18'0 0.0 985.2 11.6
2014-Oct-20 22:00N 53°43' W 143°18'0 0.5 986.2 11.5
2014-Oct-20 21:00N 53°44' W 143°19'3 2.6 987.2 11.5
2014-Oct-20 20:00N 53°44' W 143°23'0 0.0 987.8 11.6
2014-Oct-20 19:00N 53°44' W 143°23'0 0.0 988.6 11.6
2014-Oct-20 18:00N 53°44' W 143°23'0 0.0 988.9 11.5
2014-Oct-20 17:00N 53°44' W 143°23'3 2.6 989.2 11.6
2014-Oct-20 16:00N 53°41' W 143°21'0 0.0 989.6 11.6
2014-Oct-20 15:00N 53°41' W 143°21'0 0.0 990.0 11.6
2014-Oct-20 14:00N 53°41' W 143°21'1 1.0 990.3 11.6
2014-Oct-20 13:00N 53°41' W 143°19'2 2.0 990.9 11.6
2014-Oct-20 12:00N 53°43' W 143°18'0 0.0 991.4 11.6
2014-Oct-20 11:00N 53°43' W 143°18'0 0.0 991.3 11.6
2014-Oct-20 10:00N 53°43' W 143°18'0 0.0 991.3 11.6
2014-Oct-20 09:00N 53°43' W 143°18'1 0.9 991.0 11.6
2014-Oct-20 08:00N 53°44' W 143°18'1 0.6 990.8 11.6
2014-Oct-20 06:00N 53°44' W 143°20'0 0.0 989.8 11.6
2014-Oct-20 05:00N 53°44' W 143°20'0 0.0 989.4 11.6
2014-Oct-20 04:00N 53°44' W 143°20'0 0.4 988.9 11.6
2014-Oct-20 03:00N 53°44' W 143°19'1 0.9 988.3 11.6
2014-Oct-20 02:00N 53°45' W 143°21'0 0.0 987.7 11.6
2014-Oct-20 01:00N 53°45' W 143°21'1 0.8 987.1 11.6
2014-Oct-20 00:00N 53°44' W 143°20'2 1.6 986.3 11.7
2014-Oct-19 23:00N 53°44' W 143°17'0 0.4 985.2 11.7
2014-Oct-19 22:00N 53°43' W 143°17'0 0.0 984.2 11.7
2014-Oct-19 21:00N 53°43' W 143°17'5 5.2 983.3 11.7
2014-Oct-19 20:00N 53°49' W 143°16'0 0.0 982.6 11.7
2014-Oct-19 19:00N 53°49' W 143°16'0 0.0 981.9 11.7
2014-Oct-19 18:00N 53°49' W 143°16'2 2.4 981.0 11.7
2014-Oct-19 17:00N 53°46' W 143°15'1 1.4 980.5 11.7
2014-Oct-19 16:00N 53°46' W 143°17'3 1.3 980.5 11.7
2014-Oct-19 14:00N 53°48' W 143°20'0 0.0 980.2 11.7
2014-Oct-19 12:00N 53°48' W 143°20'0 0.0 980.4 11.7
2014-Oct-19 11:00N 53°48' W 143°20'3 3.1 980.8 11.7
2014-Oct-19 10:00N 53°45' W 143°17'1 0.6 980.7 11.7
2014-Oct-19 08:00N 53°46' W 143°19'2 1.7 980.2 11.7
2014-Oct-19 07:00N 53°46' W 143°16'1 1.2 980.0 11.7
2014-Oct-19 06:00N 53°46' W 143°14'0 0.0 979.6 11.7
2014-Oct-19 05:00N 53°46' W 143°14'0 0.0 979.4 11.7
2014-Oct-19 04:00N 53°46' W 143°14'1 0.9 979.1 11.7
2014-Oct-19 03:00N 53°46' W 143°13'2 1.6 978.6 11.7
2014-Oct-19 02:00N 53°48' W 143°14'0 0.0 978.5 11.7
2014-Oct-19 01:00N 53°48' W 143°14'0 0.0 978.4 11.7
2014-Oct-19 00:00N 53°48' W 143°14'2 2.0 978.0 11.7
2014-Oct-18 23:00N 53°48' W 143°17'1 1.0 977.9 11.7
2014-Oct-18 22:00N 53°47' W 143°16'2 1.8 977.5 11.7
2014-Oct-18 21:00N 53°48' W 143°13'0 0.0 977.5 11.7
2014-Oct-18 20:00N 53°48' W 143°13'0 0.0 977.1 11.7
2014-Oct-18 19:00N 53°48' W 143°13'3 2.9 976.8 11.7
2014-Oct-18 18:00N 53°45' W 143°11'1 0.3 976.8 11.8
2014-Oct-18 16:00N 53°45' W 143°10'0 0.0 978.0 11.8
2014-Oct-18 15:00N 53°45' W 143°10'0 0.4 979.2 11.8
2014-Oct-18 14:00N 53°44' W 143°10'0 0.0 980.4 11.8
2014-Oct-18 13:00N 53°44' W 143°10'4 4.1 981.3 11.8
2014-Oct-18 12:00N 53°46' W 143°03'0 0.0 982.4 11.8
2014-Oct-18 11:00N 53°46' W 143°03'0 0.0 983.2 11.8
2014-Oct-18 10:00N 53°46' W 143°03'5 5.1 984.0 11.8
2014-Oct-18 09:00N 53°46' W 143°12'0 0.0 984.9 11.8
2014-Oct-18 07:00N 53°46' W 143°12'0 0.0 986.1 11.8
2014-Oct-18 05:00N 53°46' W 143°12'3 0.9 986.9 11.8
2014-Oct-18 02:00N 53°44' W 143°09'0 0.0 988.2 11.8
2014-Oct-18 00:00N 53°44' W 143°09'2 2.5 989.5 11.8
2014-Oct-17 23:00N 53°44' W 143°05'0 0.1 990.1 11.8
2014-Oct-17 22:00N 53°44' W 143°05'0 0.2 990.9 11.8
2014-Oct-17 21:00N 53°44' W 143°05'1 1.1 991.6 11.8
2014-Oct-17 20:00N 53°45' W 143°05'0 0.0 992.3 11.8
2014-Oct-17 19:00N 53°45' W 143°05'0 0.4 992.6 11.8
2014-Oct-17 18:00N 53°46' W 143°05'1 0.7 992.9 11.8
2014-Oct-17 16:00N 53°45' W 143°08'0 0.0 993.6 11.8
2014-Oct-17 15:00N 53°45' W 143°08'1 0.7 994.0 11.8
2014-Oct-17 14:00N 53°46' W 143°09'1 1.0 994.5 11.8
2014-Oct-17 13:00N 53°45' W 143°07'1 1.3 995.2 11.8
2014-Oct-17 12:00N 53°44' W 143°08'3 3.3 995.8 11.8
2014-Oct-17 11:00N 53°44' W 143°03'0 0.0 996.3 11.8
2014-Oct-17 09:00N 53°44' W 143°03'2 0.8 997.3 11.8
2014-Oct-17 07:00N 53°45' W 143°00'3 3.1 998.0 11.8
2014-Oct-17 06:00N 53°48' W 143°01'0 0.0 998.4 11.8
2014-Oct-17 05:00N 53°48' W 143°01'0 0.0 998.8 11.8
2014-Oct-17 04:00N 53°48' W 143°01'0 0.0 999.0 11.8
2014-Oct-17 03:00N 53°48' W 143°01'1 1.4 999.2 11.8
2014-Oct-17 02:00N 53°47' W 143°03'1 0.9 999.3 11.9
2014-Oct-17 01:00N 53°47' W 143°04'1 0.7 999.7 11.9
2014-Oct-17 00:00N 53°48' W 143°05'1 1.3 1000.0 11.9
2014-Oct-16 23:00N 53°47' W 143°06'2 0.9 1000.2 11.9
2014-Oct-16 21:00N 53°45' W 143°07'1 0.5 1000.4 11.9
2014-Oct-16 20:00N 53°45' W 143°07'5 5.0 1000.5 11.8
2014-Oct-16 19:00N 53°46' W 142°59'0 0.0 1000.4 11.8
2014-Oct-16 18:00N 53°46' W 142°59'4 0.7 1000.3 11.8
2014-Oct-16 12:00N 53°47' W 143°05'0 0.0 998.5 11.9
2014-Oct-16 11:00N 53°47' W 143°05'0 0.0 998.4 11.9
2014-Oct-16 09:00N 53°47' W 143°05'1 0.3 998.0 11.9
2014-Oct-16 06:00N 53°46' W 143°05'1 1.0 996.8 12.0
2014-Oct-16 05:00N 53°46' W 143°03'3 1.4 996.4 12.0
2014-Oct-16 03:00N 53°46' W 142°58'3 1.5 995.4 12.0
2014-Oct-16 01:00N 53°49' W 142°57'3 0.8 994.5 12.0
2014-Oct-15 21:00N 53°51' W 142°54'5 1.8 993.7 12.0
2014-Oct-15 18:00N 53°50' W 143°02'2 1.8 992.6 12.0
2014-Oct-15 17:00N 53°49' W 142°60'0 0.0 992.3 12.0
2014-Oct-15 16:00N 53°49' W 142°60'2 1.9 992.1 12.0
2014-Oct-15 15:00N 53°48' W 143°02'2 1.8 992.0 12.0
2014-Oct-15 14:00N 53°48' W 142°60'5 5.1 991.7 12.0
2014-Oct-15 13:00N 53°52' W 142°54'0 0.0 991.9 12.0
2014-Oct-15 11:00N 53°52' W 142°54'0 0.0 992.4 12.0
2014-Oct-15 09:00N 53°52' W 142°54'0 0.0 992.2 12.0
2014-Oct-15 08:00N 53°52' W 142°54'2 1.2 992.3 12.0
2014-Oct-15 06:00N 53°53' W 142°57'0 0.0 992.7 12.0
2014-Oct-15 05:00N 53°53' W 142°57'1 0.5 992.8 12.0
2014-Oct-15 03:30N 53°53' W 142°58'1 1.6 993.1 12.2
2014-Oct-15 03:00N 53°52' W 142°58'2 2.1 993.1 12.0
2014-Oct-15 02:00N 53°50' W 142°57'0 0.0 993.1 12.0
2014-Oct-15 01:00N 53°50' W 142°57'0 0.0 992.8 12.0
2014-Oct-15 00:00N 53°50' W 142°57'7 7.2 992.5 12.0
2014-Oct-14 23:00N 53°56' W 142°51'0 0.0 992.4 12.0
2014-Oct-14 22:00N 53°56' W 142°51'0 0.0 992.4 12.0
2014-Oct-14 20:00N 53°56' W 142°51'0 0.0 991.5 12.0
2014-Oct-14 15:00N 53°56' W 142°51'1 0.9 989.3 12.0
2014-Oct-14 14:00N 53°55' W 142°51'0 0.0 989.3 12.0
2014-Oct-14 12:00N 53°55' W 142°51'3 2.7 989.2 12.0
2014-Oct-14 11:00N 53°53' W 142°48'0 0.0 989.3 12.0
2014-Oct-14 10:00N 53°53' W 142°48'0 0.0 989.4 12.1
2014-Oct-14 08:00N 53°53' W 142°48'2 1.9 988.6 12.1
2014-Oct-14 07:00N 53°54' W 142°46'0 0.0 988.2 12.2
2014-Oct-14 06:00N 53°54' W 142°46'4 3.5 987.8 12.2
2014-Oct-14 05:00N 53°58' W 142°47'0 0.0 987.4 12.3
2014-Oct-14 03:00N 53°58' W 142°47'0 0.0 987.3 12.3
2014-Oct-14 02:00N 53°58' W 142°47'0 0.0 987.4 12.3
2014-Oct-14 01:00N 53°58' W 142°47'0 0.0 988.2 12.3
2014-Oct-14 00:00N 53°58' W 142°47'1 1.3 988.3 12.3
2014-Oct-13 23:00N 53°58' W 142°49'1 1.0 988.7 12.3
2014-Oct-13 22:00N 53°57' W 142°49'2 0.8 989.5 12.3
2014-Oct-13 20:00N 53°59' W 142°48'5 2.3 991.4 12.3
2014-Oct-13 18:00N 53°54' W 142°48'2 2.5 992.9 12.3
2014-Oct-13 17:00N 53°55' W 142°44'0 0.0 993.4 12.3
2014-Oct-13 16:00N 53°55' W 142°44'2 1.6 994.0 12.3
2014-Oct-13 15:00N 53°56' W 142°42'2 1.5 994.5 12.2
2014-Oct-13 14:00N 53°58' W 142°41'0 0.0 995.1 12.3
2014-Oct-13 13:00N 53°58' W 142°41'6 5.9 995.7 12.3
2014-Oct-13 12:00N 54°01' W 142°49'3 1.3 996.1 12.3
2014-Oct-13 10:00N 53°59' W 142°47'1 0.2 997.0 12.3
2014-Oct-13 07:00N 53°58' W 142°47'3 1.5 997.7 12.3
2014-Oct-13 05:00N 53°55' W 142°45'2 1.8 998.0 12.3
2014-Oct-13 04:00N 53°55' W 142°42'0 0.0 998.1 12.3
2014-Oct-13 03:00N 53°55' W 142°42'0 0.0 998.1 12.3
2014-Oct-13 02:00N 53°55' W 142°42'0 0.4 997.9 12.3
2014-Oct-13 01:00N 53°55' W 142°43'2 2.5 997.9 12.3
2014-Oct-13 00:00N 53°57' W 142°41'   997.8 12.3
Track history (hours):
 
Tides and Currents Weather Stations Pressure Air Temp Water Temp Dewpoint Dewpoint Depression Visibility Wind Speed Wind Dir Waves Ship Positions

Drifting buoy 46762

Last reported at 2014-Oct-23 00:00 UTC. Time now 2014-Oct-23 01:39 UTC.
Position N 53°34' W 143°26'.

Barometer 987.3 mb
Water temperature 11.1 ° C

Date/timePositionNaut miles runAvg speedWind from/ knotsBaromVisibWave heightAir tempDewpointWater temp
2014-Oct-23 00:00N 53°34' W 143°26'0 0.4 987.3 11.1
2014-Oct-22 23:00N 53°34' W 143°26'0 0.0 987.1 11.1
2014-Oct-22 22:00N 53°34' W 143°26'2 0.9 987.1 11.1
2014-Oct-22 20:00N 53°36' W 143°27'0 0.0 986.7 11.1
2014-Oct-22 19:00N 53°36' W 143°27'0 0.0 986.4 11.1
2014-Oct-22 17:00N 53°36' W 143°27'0 0.0 985.2 11.1
2014-Oct-22 16:00N 53°36' W 143°27'1 1.3 984.7 11.2
2014-Oct-22 15:00N 53°37' W 143°29'1 1.5 984.2 11.2
2014-Oct-22 14:00N 53°36' W 143°27'0 0.4 983.8 11.2
2014-Oct-22 13:00N 53°35' W 143°27'0 0.0 983.6 11.2
2014-Oct-22 11:00N 53°35' W 143°27'0 0.0 982.7 11.2
2014-Oct-22 10:00N 53°35' W 143°27'0 0.0 982.2 11.2
2014-Oct-22 07:00N 53°35' W 143°27'3 3.0 980.7 11.2
2014-Oct-22 06:00N 53°38' W 143°25'0 0.0 980.1 11.2
2014-Oct-22 04:00N 53°38' W 143°25'3 2.6 979.8 11.3
2014-Oct-22 03:00N 53°41' W 143°27'0 0.0 979.4 11.3
2014-Oct-22 02:00N 53°41' W 143°27'2 1.9 978.6 11.3
2014-Oct-22 01:00N 53°43' W 143°27'0 0.0 977.5 11.4
2014-Oct-22 00:00N 53°43' W 143°27'1 0.7 977.6 11.4
2014-Oct-21 22:00N 53°41' W 143°29'0 0.0 975.4 11.5
2014-Oct-21 21:00N 53°41' W 143°29'0 0.0 975.0 11.5
2014-Oct-21 20:00N 53°41' W 143°29'3 3.1 974.9 11.5
2014-Oct-21 19:00N 53°41' W 143°23'0 0.0 974.5 11.5
2014-Oct-21 18:00N 53°41' W 143°23'0 0.0 974.6 11.5
2014-Oct-21 17:00N 53°41' W 143°23'2 0.8 974.4 11.5
2014-Oct-21 15:00N 53°43' W 143°24'2 2.5 975.1 11.5
2014-Oct-21 14:00N 53°43' W 143°28'0 0.0 976.0 11.5
2014-Oct-21 13:00N 53°43' W 143°28'0 0.0 976.4 11.5
2014-Oct-21 12:00N 53°43' W 143°28'0 0.0 976.4 11.5
2014-Oct-21 10:00N 53°43' W 143°28'0 0.0 976.8 11.6
2014-Oct-21 08:00N 53°43' W 143°28'0 0.0 978.1 11.6
2014-Oct-21 07:00N 53°43' W 143°28'2 1.8 978.7 11.6
2014-Oct-21 06:00N 53°42' W 143°25'1 0.8 979.2 11.6
2014-Oct-21 05:00N 53°41' W 143°25'3 3.2 979.7 11.6
2014-Oct-21 04:00N 53°41' W 143°20'0 0.0 980.5 11.6
2014-Oct-21 03:00N 53°41' W 143°20'0 0.1 981.4 11.6
2014-Oct-21 02:00N 53°41' W 143°20'1 0.4 982.2 11.5
2014-Oct-21 00:00N 53°41' W 143°18'2 2.3 984.3 11.6
2014-Oct-20 23:00N 53°43' W 143°18'0 0.0 985.2 11.6
2014-Oct-20 22:00N 53°43' W 143°18'0 0.5 986.2 11.5
2014-Oct-20 21:00N 53°44' W 143°19'3 2.6 987.2 11.5
2014-Oct-20 20:00N 53°44' W 143°23'0 0.0 987.8 11.6
2014-Oct-20 19:00N 53°44' W 143°23'0 0.0 988.6 11.6
2014-Oct-20 18:00N 53°44' W 143°23'0 0.0 988.9 11.5
2014-Oct-20 17:00N 53°44' W 143°23'3 2.6 989.2 11.6
2014-Oct-20 16:00N 53°41' W 143°21'0 0.0 989.6 11.6
2014-Oct-20 15:00N 53°41' W 143°21'0 0.0 990.0 11.6
2014-Oct-20 14:00N 53°41' W 143°21'1 1.0 990.3 11.6
2014-Oct-20 13:00N 53°41' W 143°19'2 2.0 990.9 11.6
2014-Oct-20 12:00N 53°43' W 143°18'0 0.0 991.4 11.6
2014-Oct-20 11:00N 53°43' W 143°18'0 0.0 991.3 11.6
2014-Oct-20 10:00N 53°43' W 143°18'0 0.0 991.3 11.6
2014-Oct-20 09:00N 53°43' W 143°18'1 0.9 991.0 11.6
2014-Oct-20 08:00N 53°44' W 143°18'1 0.6 990.8 11.6
2014-Oct-20 06:00N 53°44' W 143°20'0 0.0 989.8 11.6
2014-Oct-20 05:00N 53°44' W 143°20'0 0.0 989.4 11.6
2014-Oct-20 04:00N 53°44' W 143°20'0 0.4 988.9 11.6
2014-Oct-20 03:00N 53°44' W 143°19'1 0.9 988.3 11.6
2014-Oct-20 02:00N 53°45' W 143°21'0 0.0 987.7 11.6
2014-Oct-20 01:00N 53°45' W 143°21'1 0.8 987.1 11.6
2014-Oct-20 00:00N 53°44' W 143°20'2 1.6 986.3 11.7
2014-Oct-19 23:00N 53°44' W 143°17'0 0.4 985.2 11.7
2014-Oct-19 22:00N 53°43' W 143°17'0 0.0 984.2 11.7
2014-Oct-19 21:00N 53°43' W 143°17'5 5.2 983.3 11.7
2014-Oct-19 20:00N 53°49' W 143°16'0 0.0 982.6 11.7
2014-Oct-19 19:00N 53°49' W 143°16'0 0.0 981.9 11.7
2014-Oct-19 18:00N 53°49' W 143°16'2 2.4 981.0 11.7
2014-Oct-19 17:00N 53°46' W 143°15'1 1.4 980.5 11.7
2014-Oct-19 16:00N 53°46' W 143°17'3 1.3 980.5 11.7
2014-Oct-19 14:00N 53°48' W 143°20'0 0.0 980.2 11.7
2014-Oct-19 12:00N 53°48' W 143°20'0 0.0 980.4 11.7
2014-Oct-19 11:00N 53°48' W 143°20'3 3.1 980.8 11.7
2014-Oct-19 10:00N 53°45' W 143°17'1 0.6 980.7 11.7
2014-Oct-19 08:00N 53°46' W 143°19'2 1.7 980.2 11.7
2014-Oct-19 07:00N 53°46' W 143°16'1 1.2 980.0 11.7
2014-Oct-19 06:00N 53°46' W 143°14'0 0.0 979.6 11.7
2014-Oct-19 05:00N 53°46' W 143°14'0 0.0 979.4 11.7
2014-Oct-19 04:00N 53°46' W 143°14'1 0.9 979.1 11.7
2014-Oct-19 03:00N 53°46' W 143°13'2 1.6 978.6 11.7
2014-Oct-19 02:00N 53°48' W 143°14'0 0.0 978.5 11.7
2014-Oct-19 01:00N 53°48' W 143°14'0 0.0 978.4 11.7
2014-Oct-19 00:00N 53°48' W 143°14'2 2.0 978.0 11.7
2014-Oct-18 23:00N 53°48' W 143°17'1 1.0 977.9 11.7
2014-Oct-18 22:00N 53°47' W 143°16'2 1.8 977.5 11.7
2014-Oct-18 21:00N 53°48' W 143°13'0 0.0 977.5 11.7
2014-Oct-18 20:00N 53°48' W 143°13'0 0.0 977.1 11.7
2014-Oct-18 19:00N 53°48' W 143°13'3 2.9 976.8 11.7
2014-Oct-18 18:00N 53°45' W 143°11'1 0.3 976.8 11.8
2014-Oct-18 16:00N 53°45' W 143°10'0 0.0 978.0 11.8
2014-Oct-18 15:00N 53°45' W 143°10'0 0.4 979.2 11.8
2014-Oct-18 14:00N 53°44' W 143°10'0 0.0 980.4 11.8
2014-Oct-18 13:00N 53°44' W 143°10'4 4.1 981.3 11.8
2014-Oct-18 12:00N 53°46' W 143°03'0 0.0 982.4 11.8
2014-Oct-18 11:00N 53°46' W 143°03'0 0.0 983.2 11.8
2014-Oct-18 10:00N 53°46' W 143°03'5 5.1 984.0 11.8
2014-Oct-18 09:00N 53°46' W 143°12'0 0.0 984.9 11.8
2014-Oct-18 07:00N 53°46' W 143°12'0 0.0 986.1 11.8
2014-Oct-18 05:00N 53°46' W 143°12'3 0.9 986.9 11.8
2014-Oct-18 02:00N 53°44' W 143°09'0 0.0 988.2 11.8
2014-Oct-18 00:00N 53°44' W 143°09'2 2.5 989.5 11.8
2014-Oct-17 23:00N 53°44' W 143°05'0 0.1 990.1 11.8
2014-Oct-17 22:00N 53°44' W 143°05'0 0.2 990.9 11.8
2014-Oct-17 21:00N 53°44' W 143°05'1 1.1 991.6 11.8
2014-Oct-17 20:00N 53°45' W 143°05'0 0.0 992.3 11.8
2014-Oct-17 19:00N 53°45' W 143°05'0 0.4 992.6 11.8
2014-Oct-17 18:00N 53°46' W 143°05'1 0.7 992.9 11.8
2014-Oct-17 16:00N 53°45' W 143°08'0 0.0 993.6 11.8
2014-Oct-17 15:00N 53°45' W 143°08'1 0.7 994.0 11.8
2014-Oct-17 14:00N 53°46' W 143°09'1 1.0 994.5 11.8
2014-Oct-17 13:00N 53°45' W 143°07'1 1.3 995.2 11.8
2014-Oct-17 12:00N 53°44' W 143°08'3 3.3 995.8 11.8
2014-Oct-17 11:00N 53°44' W 143°03'0 0.0 996.3 11.8
2014-Oct-17 09:00N 53°44' W 143°03'2 0.8 997.3 11.8
2014-Oct-17 07:00N 53°45' W 143°00'3 3.1 998.0 11.8
2014-Oct-17 06:00N 53°48' W 143°01'0 0.0 998.4 11.8
2014-Oct-17 05:00N 53°48' W 143°01'0 0.0 998.8 11.8
2014-Oct-17 04:00N 53°48' W 143°01'0 0.0 999.0 11.8
2014-Oct-17 03:00N 53°48' W 143°01'1 1.4 999.2 11.8
2014-Oct-17 02:00N 53°47' W 143°03'1 0.9 999.3 11.9
2014-Oct-17 01:00N 53°47' W 143°04'1 0.7 999.7 11.9
2014-Oct-17 00:00N 53°48' W 143°05'1 1.3 1000.0 11.9
2014-Oct-16 23:00N 53°47' W 143°06'2 0.9 1000.2 11.9
2014-Oct-16 21:00N 53°45' W 143°07'1 0.5 1000.4 11.9
2014-Oct-16 20:00N 53°45' W 143°07'5 5.0 1000.5 11.8
2014-Oct-16 19:00N 53°46' W 142°59'0 0.0 1000.4 11.8
2014-Oct-16 18:00N 53°46' W 142°59'4 0.7 1000.3 11.8
2014-Oct-16 12:00N 53°47' W 143°05'0 0.0 998.5 11.9
2014-Oct-16 11:00N 53°47' W 143°05'0 0.0 998.4 11.9
2014-Oct-16 09:00N 53°47' W 143°05'1 0.3 998.0 11.9
2014-Oct-16 06:00N 53°46' W 143°05'1 1.0 996.8 12.0
2014-Oct-16 05:00N 53°46' W 143°03'3 1.4 996.4 12.0
2014-Oct-16 03:00N 53°46' W 142°58'3 1.5 995.4 12.0
2014-Oct-16 01:00N 53°49' W 142°57'3 0.8 994.5 12.0
2014-Oct-15 21:00N 53°51' W 142°54'5 1.8 993.7 12.0
2014-Oct-15 18:00N 53°50' W 143°02'2 1.8 992.6 12.0
2014-Oct-15 17:00N 53°49' W 142°60'0 0.0 992.3 12.0
2014-Oct-15 16:00N 53°49' W 142°60'2 1.9 992.1 12.0
2014-Oct-15 15:00N 53°48' W 143°02'2 1.8 992.0 12.0
2014-Oct-15 14:00N 53°48' W 142°60'5 5.1 991.7 12.0
2014-Oct-15 13:00N 53°52' W 142°54'0 0.0 991.9 12.0
2014-Oct-15 11:00N 53°52' W 142°54'0 0.0 992.4 12.0
2014-Oct-15 09:00N 53°52' W 142°54'0 0.0 992.2 12.0
2014-Oct-15 08:00N 53°52' W 142°54'2 1.2 992.3 12.0
2014-Oct-15 06:00N 53°53' W 142°57'0 0.0 992.7 12.0
2014-Oct-15 05:00N 53°53' W 142°57'1 0.5 992.8 12.0
2014-Oct-15 03:30N 53°53' W 142°58'1 1.6 993.1 12.2
2014-Oct-15 03:00N 53°52' W 142°58'2 2.1 993.1 12.0
2014-Oct-15 02:00N 53°50' W 142°57'0 0.0 993.1 12.0
2014-Oct-15 01:00N 53°50' W 142°57'0 0.0 992.8 12.0
2014-Oct-15 00:00N 53°50' W 142°57'7 7.2 992.5 12.0
2014-Oct-14 23:00N 53°56' W 142°51'0 0.0 992.4 12.0
2014-Oct-14 22:00N 53°56' W 142°51'0 0.0 992.4 12.0
2014-Oct-14 20:00N 53°56' W 142°51'0 0.0 991.5 12.0
2014-Oct-14 15:00N 53°56' W 142°51'1 0.9 989.3 12.0
2014-Oct-14 14:00N 53°55' W 142°51'0 0.0 989.3 12.0
2014-Oct-14 12:00N 53°55' W 142°51'3 2.7 989.2 12.0
2014-Oct-14 11:00N 53°53' W 142°48'0 0.0 989.3 12.0
2014-Oct-14 10:00N 53°53' W 142°48'0 0.0 989.4 12.1
2014-Oct-14 08:00N 53°53' W 142°48'2 1.9 988.6 12.1
2014-Oct-14 07:00N 53°54' W 142°46'0 0.0 988.2 12.2
2014-Oct-14 06:00N 53°54' W 142°46'4 3.5 987.8 12.2
2014-Oct-14 05:00N 53°58' W 142°47'0 0.0 987.4 12.3
2014-Oct-14 03:00N 53°58' W 142°47'0 0.0 987.3 12.3
2014-Oct-14 02:00N 53°58' W 142°47'0 0.0 987.4 12.3
2014-Oct-14 01:00N 53°58' W 142°47'0 0.0 988.2 12.3
2014-Oct-14 00:00N 53°58' W 142°47'1 1.3 988.3 12.3
2014-Oct-13 23:00N 53°58' W 142°49'1 1.0 988.7 12.3
2014-Oct-13 22:00N 53°57' W 142°49'2 0.8 989.5 12.3
2014-Oct-13 20:00N 53°59' W 142°48'5 2.3 991.4 12.3
2014-Oct-13 18:00N 53°54' W 142°48'2 2.5 992.9 12.3
2014-Oct-13 17:00N 53°55' W 142°44'0 0.0 993.4 12.3
2014-Oct-13 16:00N 53°55' W 142°44'2 1.6 994.0 12.3
2014-Oct-13 15:00N 53°56' W 142°42'2 1.5 994.5 12.2
2014-Oct-13 14:00N 53°58' W 142°41'0 0.0 995.1 12.3
2014-Oct-13 13:00N 53°58' W 142°41'6 5.9 995.7 12.3
2014-Oct-13 12:00N 54°01' W 142°49'3 1.3 996.1 12.3
2014-Oct-13 10:00N 53°59' W 142°47'1 0.2 997.0 12.3
2014-Oct-13 07:00N 53°58' W 142°47'3 1.5 997.7 12.3
2014-Oct-13 05:00N 53°55' W 142°45'2 1.8 998.0 12.3
2014-Oct-13 04:00N 53°55' W 142°42'0 0.0 998.1 12.3
2014-Oct-13 03:00N 53°55' W 142°42'0 0.0 998.1 12.3
2014-Oct-13 02:00N 53°55' W 142°42'0 0.4 997.9 12.3
2014-Oct-13 01:00N 53°55' W 142°43'2 2.5 997.9 12.3
2014-Oct-13 00:00N 53°57' W 142°41'   997.8 12.3

Dump ship's entire track history